AAL3315 KMIA-TNCM
Flight info
| Callsign | AAL3315 |
|---|---|
| Flight time | 2h 23m |
| Altitude | 35000 |
| Route | KLADA2 BITAC Y290 SLUGO |
| Aircraft | B738/M-SDE2E3FGHIRWXY/LB1 |
Departure
| Time | 2026-05-07 13:33 |
|---|---|
| Airport | Miami International Airport (KMIA) |
Arrival
| Time | 2026-05-07 15:57 |
|---|---|
| Airport | Princess Juliana International Airport (TNCM) |
| Time | Latitude | Longitude | Altitude | Speed | Heading |
|---|---|---|---|---|---|
| 2026-05-07 13:08 | 25.79916 | -80.27220 | 16 ft | 0 kts | 179° |
| 2026-05-07 13:19 | 25.79920 | -80.27220 | 16 ft | 2 kts | 180° |
| 2026-05-07 13:19 | 25.79938 | -80.27220 | 16 ft | 3 kts | 182° |
| 2026-05-07 13:19 | 25.79959 | -80.27218 | 16 ft | 3 kts | 189° |
| 2026-05-07 13:19 | 25.79978 | -80.27213 | 16 ft | 3 kts | 202° |
| 2026-05-07 13:20 | 25.79994 | -80.27203 | 16 ft | 3 kts | 236° |
| 2026-05-07 13:20 | 25.79998 | -80.27191 | 16 ft | 1 kts | 268° |
| 2026-05-07 13:20 | 25.79999 | -80.27186 | 16 ft | 0 kts | 268° |
| 2026-05-07 13:21 | 25.79999 | -80.27187 | 16 ft | 0 kts | 268° |
| 2026-05-07 13:22 | 25.79998 | -80.27201 | 16 ft | 7 kts | 268° |
| 2026-05-07 13:22 | 25.79995 | -80.27305 | 16 ft | 16 kts | 267° |
| 2026-05-07 13:22 | 25.79990 | -80.27423 | 16 ft | 15 kts | 273° |
| 2026-05-07 13:22 | 25.80049 | -80.27505 | 16 ft | 14 kts | 314° |
| 2026-05-07 13:23 | 25.80066 | -80.27605 | 16 ft | 13 kts | 266° |
| 2026-05-07 13:23 | 25.80061 | -80.27709 | 16 ft | 14 kts | 267° |
| 2026-05-07 13:23 | 25.80057 | -80.27824 | 16 ft | 18 kts | 269° |
| 2026-05-07 13:23 | 25.80050 | -80.27969 | 16 ft | 19 kts | 266° |
| 2026-05-07 13:24 | 25.80044 | -80.28108 | 16 ft | 18 kts | 268° |
| 2026-05-07 13:24 | 25.80039 | -80.28240 | 16 ft | 17 kts | 267° |
| 2026-05-07 13:24 | 25.80034 | -80.28365 | 16 ft | 16 kts | 267° |
| 2026-05-07 13:24 | 25.80029 | -80.28482 | 16 ft | 15 kts | 267° |
| 2026-05-07 13:25 | 25.80025 | -80.28592 | 16 ft | 14 kts | 267° |
| 2026-05-07 13:25 | 25.80020 | -80.28695 | 16 ft | 13 kts | 267° |
| 2026-05-07 13:25 | 25.80016 | -80.28793 | 16 ft | 13 kts | 267° |
| 2026-05-07 13:25 | 25.80012 | -80.28894 | 16 ft | 15 kts | 267° |
| 2026-05-07 13:26 | 25.80007 | -80.29009 | 16 ft | 14 kts | 267° |
| 2026-05-07 13:26 | 25.80002 | -80.29117 | 16 ft | 14 kts | 267° |
| 2026-05-07 13:26 | 25.79996 | -80.29282 | 16 ft | 29 kts | 268° |
| 2026-05-07 13:26 | 25.79985 | -80.29500 | 16 ft | 27 kts | 266° |
| 2026-05-07 13:27 | 25.79975 | -80.29699 | 16 ft | 25 kts | 268° |
| 2026-05-07 13:27 | 25.79968 | -80.29879 | 16 ft | 23 kts | 267° |
| 2026-05-07 13:27 | 25.79960 | -80.30031 | 16 ft | 14 kts | 268° |
| 2026-05-07 13:27 | 25.79972 | -80.30068 | 16 ft | 0 kts | 300° |
| 2026-05-07 13:29 | 25.79973 | -80.30068 | 16 ft | 0 kts | 300° |
| 2026-05-07 13:30 | 25.79974 | -80.30070 | 16 ft | 2 kts | 302° |
| 2026-05-07 13:30 | 25.80003 | -80.30110 | 16 ft | 9 kts | 327° |
| 2026-05-07 13:31 | 25.80065 | -80.30126 | 16 ft | 5 kts | 57° |
| 2026-05-07 13:31 | 25.80072 | -80.30097 | 16 ft | 4 kts | 84° |
| 2026-05-07 13:31 | 25.80072 | -80.30093 | 16 ft | 0 kts | 85° |
| 2026-05-07 13:32 | 25.80072 | -80.30092 | 16 ft | 0 kts | 85° |
| 2026-05-07 13:32 | 25.80072 | -80.30091 | 16 ft | 2 kts | 85° |
| 2026-05-07 13:32 | 25.80082 | -80.29928 | 16 ft | 52 kts | 87° |
| 2026-05-07 13:33 | 25.80107 | -80.29284 | 16 ft | 114 kts | 88° |
| 2026-05-07 13:33 | 25.80151 | -80.28196 | 20 ft | 167 kts | 88° |
| 2026-05-07 13:33 | 25.80199 | -80.26823 | 485 ft | 182 kts | 88° |
| 2026-05-07 13:33 | 25.80186 | -80.25424 | 1280 ft | 186 kts | 96° |
| 2026-05-07 13:34 | 25.79770 | -80.23994 | 1773 ft | 204 kts | 116° |
| 2026-05-07 13:34 | 25.78163 | -80.21061 | 2591 ft | 244 kts | 120° |
| 2026-05-07 13:34 | 25.77369 | -80.19363 | 3298 ft | 254 kts | 117° |
| 2026-05-07 13:35 | 25.76597 | -80.17546 | 3967 ft | 265 kts | 116° |
| 2026-05-07 13:35 | 25.75731 | -80.15717 | 4772 ft | 270 kts | 119° |
| 2026-05-07 13:35 | 25.74800 | -80.13884 | 5593 ft | 275 kts | 120° |
| 2026-05-07 13:35 | 25.73852 | -80.12024 | 6406 ft | 279 kts | 119° |
| 2026-05-07 13:36 | 25.73006 | -80.10071 | 7195 ft | 283 kts | 112° |
| 2026-05-07 13:36 | 25.72294 | -80.08019 | 7940 ft | 288 kts | 110° |
| 2026-05-07 13:36 | 25.71618 | -80.05915 | 8664 ft | 292 kts | 110° |
| 2026-05-07 13:36 | 25.70929 | -80.03777 | 9355 ft | 296 kts | 109° |
| 2026-05-07 13:37 | 25.70236 | -80.01609 | 10066 ft | 300 kts | 109° |
| 2026-05-07 13:37 | 25.69522 | -79.99411 | 10718 ft | 306 kts | 109° |
| 2026-05-07 13:37 | 25.68781 | -79.97154 | 11172 ft | 319 kts | 109° |
| 2026-05-07 13:37 | 25.67997 | -79.94781 | 11469 ft | 336 kts | 109° |
| 2026-05-07 13:38 | 25.67171 | -79.92292 | 11737 ft | 352 kts | 109° |
| 2026-05-07 13:38 | 25.66305 | -79.89690 | 12058 ft | 365 kts | 109° |
| 2026-05-07 13:38 | 25.65415 | -79.87023 | 12522 ft | 373 kts | 109° |
| 2026-05-07 13:38 | 25.64509 | -79.84310 | 13022 ft | 378 kts | 109° |
| 2026-05-07 13:39 | 25.63591 | -79.81562 | 13549 ft | 383 kts | 109° |
| 2026-05-07 13:39 | 25.62660 | -79.78774 | 14052 ft | 388 kts | 109° |
| 2026-05-07 13:39 | 25.61718 | -79.75955 | 14568 ft | 392 kts | 109° |
| 2026-05-07 13:39 | 25.60764 | -79.73104 | 15055 ft | 397 kts | 109° |
| 2026-05-07 13:40 | 25.59801 | -79.70222 | 15535 ft | 401 kts | 109° |
| 2026-05-07 13:40 | 25.58806 | -79.67320 | 16007 ft | 406 kts | 110° |
| 2026-05-07 13:40 | 25.57734 | -79.64405 | 16467 ft | 410 kts | 111° |
| 2026-05-07 13:40 | 25.56638 | -79.61466 | 16917 ft | 415 kts | 111° |
| 2026-05-07 13:41 | 25.55536 | -79.58497 | 17358 ft | 419 kts | 110° |
| 2026-05-07 13:41 | 25.54426 | -79.55497 | 17797 ft | 423 kts | 110° |
| 2026-05-07 13:41 | 25.53309 | -79.52469 | 18217 ft | 427 kts | 110° |
| 2026-05-07 13:41 | 25.52197 | -79.49453 | 18651 ft | 430 kts | 110° |
| 2026-05-07 13:42 | 25.51064 | -79.46377 | 19051 ft | 434 kts | 110° |
| 2026-05-07 13:42 | 25.49919 | -79.43270 | 19461 ft | 437 kts | 110° |
| 2026-05-07 13:42 | 25.48765 | -79.40142 | 19864 ft | 440 kts | 110° |
| 2026-05-07 13:42 | 25.47603 | -79.36991 | 20230 ft | 444 kts | 111° |
| 2026-05-07 13:43 | 25.46436 | -79.33815 | 20621 ft | 447 kts | 110° |
| 2026-05-07 13:43 | 25.45274 | -79.30613 | 20969 ft | 450 kts | 110° |
| 2026-05-07 13:43 | 25.44098 | -79.27391 | 21335 ft | 453 kts | 111° |
| 2026-05-07 13:43 | 25.42908 | -79.24152 | 21667 ft | 457 kts | 111° |
| 2026-05-07 13:44 | 25.41708 | -79.20885 | 21996 ft | 460 kts | 111° |
| 2026-05-07 13:44 | 25.40498 | -79.17601 | 22327 ft | 462 kts | 111° |
| 2026-05-07 13:44 | 25.39280 | -79.14301 | 22644 ft | 465 kts | 111° |
| 2026-05-07 13:44 | 25.38054 | -79.10983 | 22948 ft | 468 kts | 111° |
| 2026-05-07 13:45 | 25.36819 | -79.07642 | 23250 ft | 470 kts | 111° |
| 2026-05-07 13:45 | 25.35576 | -79.04286 | 23537 ft | 473 kts | 111° |
| 2026-05-07 13:45 | 25.34326 | -79.00912 | 23832 ft | 475 kts | 111° |
| 2026-05-07 13:45 | 25.33070 | -78.97523 | 24093 ft | 478 kts | 111° |
| 2026-05-07 13:46 | 25.31805 | -78.94113 | 24396 ft | 480 kts | 111° |
| 2026-05-07 13:46 | 25.30536 | -78.90696 | 24649 ft | 482 kts | 111° |
| 2026-05-07 13:46 | 25.29273 | -78.87255 | 24930 ft | 484 kts | 111° |
| 2026-05-07 13:46 | 25.27995 | -78.83804 | 25180 ft | 487 kts | 111° |
| 2026-05-07 13:47 | 25.26704 | -78.80338 | 25442 ft | 488 kts | 111° |
| 2026-05-07 13:47 | 25.25407 | -78.76867 | 25712 ft | 490 kts | 111° |
| 2026-05-07 13:47 | 25.24102 | -78.73377 | 25932 ft | 493 kts | 111° |
| 2026-05-07 13:47 | 25.22792 | -78.69880 | 26186 ft | 494 kts | 111° |
| 2026-05-07 13:48 | 25.21474 | -78.66361 | 26402 ft | 497 kts | 111° |
| 2026-05-07 13:48 | 25.20151 | -78.62830 | 26654 ft | 498 kts | 111° |
| 2026-05-07 13:48 | 25.18825 | -78.59294 | 26862 ft | 500 kts | 111° |
| 2026-05-07 13:48 | 25.17487 | -78.55738 | 27095 ft | 502 kts | 111° |
| 2026-05-07 13:49 | 25.16068 | -78.52216 | 27324 ft | 504 kts | 113° |
| 2026-05-07 13:49 | 25.14609 | -78.48746 | 27524 ft | 506 kts | 114° |
| 2026-05-07 13:49 | 25.13132 | -78.45215 | 27730 ft | 507 kts | 113° |
| 2026-05-07 13:49 | 25.11659 | -78.41672 | 27947 ft | 509 kts | 113° |
| 2026-05-07 13:50 | 25.10185 | -78.38116 | 28156 ft | 510 kts | 113° |
| 2026-05-07 13:50 | 25.08709 | -78.34549 | 28333 ft | 512 kts | 113° |
| 2026-05-07 13:50 | 25.07227 | -78.30968 | 28539 ft | 514 kts | 113° |
| 2026-05-07 13:50 | 25.05744 | -78.27383 | 28761 ft | 514 kts | 113° |
| 2026-05-07 13:51 | 25.04259 | -78.23795 | 29064 ft | 513 kts | 113° |
| 2026-05-07 13:51 | 25.02794 | -78.20214 | 29370 ft | 512 kts | 113° |
| 2026-05-07 13:51 | 25.01331 | -78.16641 | 29643 ft | 512 kts | 113° |
| 2026-05-07 13:51 | 24.99859 | -78.13063 | 29890 ft | 512 kts | 113° |
| 2026-05-07 13:52 | 24.98385 | -78.09492 | 30206 ft | 511 kts | 113° |
| 2026-05-07 13:52 | 24.96912 | -78.05930 | 30518 ft | 510 kts | 113° |
| 2026-05-07 13:52 | 24.95442 | -78.02380 | 30841 ft | 509 kts | 113° |
| 2026-05-07 13:52 | 24.93976 | -77.98844 | 31220 ft | 506 kts | 113° |
| 2026-05-07 13:53 | 24.92515 | -77.95321 | 31529 ft | 505 kts | 113° |
| 2026-05-07 13:53 | 24.91052 | -77.91799 | 31791 ft | 506 kts | 113° |
| 2026-05-07 13:53 | 24.89591 | -77.88284 | 32123 ft | 504 kts | 113° |
| 2026-05-07 13:53 | 24.88140 | -77.84777 | 32474 ft | 502 kts | 112° |
| 2026-05-07 13:54 | 24.86696 | -77.81278 | 32753 ft | 502 kts | 113° |
| 2026-05-07 13:54 | 24.85245 | -77.77789 | 33059 ft | 501 kts | 113° |
| 2026-05-07 13:54 | 24.83794 | -77.74315 | 33443 ft | 498 kts | 113° |
| 2026-05-07 13:54 | 24.82347 | -77.70855 | 33706 ft | 498 kts | 113° |
| 2026-05-07 13:55 | 24.80896 | -77.67391 | 33970 ft | 498 kts | 113° |
| 2026-05-07 13:55 | 24.79448 | -77.63936 | 34271 ft | 497 kts | 113° |
| 2026-05-07 13:55 | 24.78001 | -77.60483 | 34539 ft | 497 kts | 113° |
| 2026-05-07 13:55 | 24.76554 | -77.57033 | 34822 ft | 496 kts | 113° |
| 2026-05-07 13:56 | 24.75112 | -77.53591 | 35096 ft | 495 kts | 113° |
| 2026-05-07 13:56 | 24.73624 | -77.50178 | 35353 ft | 495 kts | 115° |
| 2026-05-07 13:56 | 24.72061 | -77.46796 | 35562 ft | 496 kts | 116° |
| 2026-05-07 13:56 | 24.70492 | -77.43419 | 35832 ft | 495 kts | 116° |
| 2026-05-07 13:57 | 24.68932 | -77.40050 | 36078 ft | 495 kts | 116° |
| 2026-05-07 13:57 | 24.67371 | -77.36670 | 36182 ft | 498 kts | 115° |
| 2026-05-07 13:57 | 24.65804 | -77.33273 | 36044 ft | 498 kts | 116° |
| 2026-05-07 13:57 | 24.64237 | -77.29872 | 35796 ft | 500 kts | 115° |
| 2026-05-07 13:58 | 24.62667 | -77.26465 | 35546 ft | 500 kts | 115° |
| 2026-05-07 13:58 | 24.61092 | -77.23049 | 35295 ft | 501 kts | 115° |
| 2026-05-07 13:58 | 24.59522 | -77.19639 | 35161 ft | 500 kts | 115° |
| 2026-05-07 13:59 | 24.56417 | -77.12817 | 35130 ft | 500 kts | 115° |
| 2026-05-07 13:59 | 24.53304 | -77.06023 | 35128 ft | 502 kts | 115° |
| 2026-05-07 14:00 | 24.50162 | -76.99191 | 35128 ft | 501 kts | 115° |
| 2026-05-07 14:00 | 24.47016 | -76.92366 | 35128 ft | 501 kts | 115° |
| 2026-05-07 14:01 | 24.43871 | -76.85556 | 35127 ft | 500 kts | 115° |
| 2026-05-07 14:01 | 24.40724 | -76.78755 | 35127 ft | 500 kts | 115° |
| 2026-05-07 14:02 | 24.37578 | -76.71964 | 35126 ft | 500 kts | 115° |
| 2026-05-07 14:02 | 24.34428 | -76.65176 | 35126 ft | 499 kts | 115° |
| 2026-05-07 14:03 | 24.31275 | -76.58390 | 35125 ft | 499 kts | 115° |
| 2026-05-07 14:03 | 24.28121 | -76.51612 | 35124 ft | 499 kts | 115° |
| 2026-05-07 14:04 | 24.24964 | -76.44838 | 35124 ft | 499 kts | 115° |
| 2026-05-07 14:04 | 24.21827 | -76.38118 | 35124 ft | 499 kts | 115° |
| 2026-05-07 14:05 | 24.18668 | -76.31357 | 35123 ft | 499 kts | 115° |
| 2026-05-07 14:05 | 24.15506 | -76.24603 | 35123 ft | 498 kts | 115° |
| 2026-05-07 14:06 | 24.12342 | -76.17852 | 35122 ft | 498 kts | 115° |
| 2026-05-07 14:06 | 24.09690 | -76.12202 | 35122 ft | 498 kts | 115° |
| 2026-05-07 14:07 | 24.06521 | -76.05459 | 35122 ft | 498 kts | 115° |
| 2026-05-07 14:07 | 24.03372 | -75.98767 | 35121 ft | 498 kts | 115° |
| 2026-05-07 14:08 | 24.00198 | -75.92032 | 35120 ft | 498 kts | 115° |
| 2026-05-07 14:08 | 23.97018 | -75.85296 | 35120 ft | 498 kts | 115° |
| 2026-05-07 14:09 | 23.93839 | -75.78568 | 35121 ft | 498 kts | 115° |
| 2026-05-07 14:09 | 23.90657 | -75.71847 | 35121 ft | 498 kts | 115° |
| 2026-05-07 14:10 | 23.87473 | -75.65128 | 35120 ft | 498 kts | 115° |
| 2026-05-07 14:10 | 23.84286 | -75.58413 | 35119 ft | 498 kts | 115° |
| 2026-05-07 14:11 | 23.81097 | -75.51705 | 35119 ft | 498 kts | 115° |
| 2026-05-07 14:11 | 23.77901 | -75.44990 | 35119 ft | 498 kts | 115° |
| 2026-05-07 14:12 | 23.74703 | -75.38281 | 35119 ft | 498 kts | 115° |
| 2026-05-07 14:12 | 23.71504 | -75.31579 | 35119 ft | 498 kts | 115° |
| 2026-05-07 14:13 | 23.68303 | -75.24882 | 35119 ft | 498 kts | 115° |
| 2026-05-07 14:13 | 23.65100 | -75.18190 | 35119 ft | 498 kts | 115° |
| 2026-05-07 14:14 | 23.61888 | -75.11487 | 35119 ft | 498 kts | 115° |
| 2026-05-07 14:14 | 23.58675 | -75.04793 | 35119 ft | 498 kts | 115° |
| 2026-05-07 14:15 | 23.55460 | -74.98105 | 35119 ft | 498 kts | 115° |
| 2026-05-07 14:15 | 23.52240 | -74.91415 | 35119 ft | 499 kts | 115° |
| 2026-05-07 14:16 | 23.49015 | -74.84722 | 35119 ft | 498 kts | 115° |
| 2026-05-07 14:16 | 23.45811 | -74.78084 | 35119 ft | 498 kts | 115° |
| 2026-05-07 14:17 | 23.42558 | -74.71353 | 35118 ft | 499 kts | 115° |
| 2026-05-07 14:17 | 23.39346 | -74.64717 | 35118 ft | 499 kts | 115° |
| 2026-05-07 14:18 | 23.36108 | -74.58034 | 35118 ft | 499 kts | 115° |
| 2026-05-07 14:18 | 23.32870 | -74.51361 | 35117 ft | 499 kts | 115° |
| 2026-05-07 14:19 | 23.29626 | -74.44685 | 35117 ft | 499 kts | 115° |
| 2026-05-07 14:19 | 23.26381 | -74.38016 | 35117 ft | 499 kts | 115° |
| 2026-05-07 14:20 | 23.23130 | -74.31344 | 35116 ft | 500 kts | 115° |
| 2026-05-07 14:20 | 23.19874 | -74.24670 | 35115 ft | 499 kts | 115° |
| 2026-05-07 14:21 | 23.16615 | -74.18000 | 35115 ft | 499 kts | 115° |
| 2026-05-07 14:21 | 23.13357 | -74.11339 | 35115 ft | 499 kts | 115° |
| 2026-05-07 14:22 | 23.10094 | -74.04679 | 35113 ft | 499 kts | 115° |
| 2026-05-07 14:22 | 23.06830 | -73.98026 | 35113 ft | 499 kts | 115° |
| 2026-05-07 14:23 | 23.03567 | -73.91382 | 35111 ft | 499 kts | 115° |
| 2026-05-07 14:23 | 23.00301 | -73.84742 | 35110 ft | 498 kts | 115° |
| 2026-05-07 14:24 | 22.97035 | -73.78110 | 35109 ft | 498 kts | 115° |
| 2026-05-07 14:24 | 22.93767 | -73.71484 | 35107 ft | 498 kts | 115° |
| 2026-05-07 14:25 | 22.90499 | -73.64866 | 35105 ft | 498 kts | 115° |
| 2026-05-07 14:25 | 22.87229 | -73.58253 | 35104 ft | 498 kts | 115° |
| 2026-05-07 14:26 | 22.83956 | -73.51641 | 35103 ft | 497 kts | 115° |
| 2026-05-07 14:26 | 22.80684 | -73.45041 | 35101 ft | 497 kts | 115° |
| 2026-05-07 14:27 | 22.77409 | -73.38444 | 35100 ft | 497 kts | 115° |
| 2026-05-07 14:27 | 22.74147 | -73.31881 | 35098 ft | 498 kts | 115° |
| 2026-05-07 14:28 | 22.70863 | -73.25283 | 35097 ft | 497 kts | 115° |
| 2026-05-07 14:28 | 22.67580 | -73.18695 | 35096 ft | 497 kts | 115° |
| 2026-05-07 14:29 | 22.64290 | -73.12103 | 35094 ft | 497 kts | 115° |
| 2026-05-07 14:29 | 22.61000 | -73.05518 | 35093 ft | 498 kts | 115° |
| 2026-05-07 14:30 | 22.57707 | -72.98935 | 35092 ft | 497 kts | 115° |
| 2026-05-07 14:30 | 22.54413 | -72.92359 | 35091 ft | 497 kts | 115° |
| 2026-05-07 14:31 | 22.51116 | -72.85786 | 35089 ft | 497 kts | 115° |
| 2026-05-07 14:31 | 22.47816 | -72.79216 | 35089 ft | 497 kts | 115° |
| 2026-05-07 14:32 | 22.44518 | -72.72657 | 35088 ft | 496 kts | 115° |
| 2026-05-07 14:32 | 22.41217 | -72.66102 | 35087 ft | 496 kts | 115° |
| 2026-05-07 14:33 | 22.37918 | -72.59559 | 35086 ft | 496 kts | 115° |
| 2026-05-07 14:33 | 22.34614 | -72.53013 | 35086 ft | 496 kts | 114° |
| 2026-05-07 14:34 | 22.31312 | -72.46480 | 35085 ft | 495 kts | 115° |
| 2026-05-07 14:34 | 22.28006 | -72.39948 | 35085 ft | 495 kts | 114° |
| 2026-05-07 14:35 | 22.24703 | -72.33429 | 35084 ft | 495 kts | 115° |
| 2026-05-07 14:35 | 22.21395 | -72.26909 | 35084 ft | 496 kts | 114° |
| 2026-05-07 14:36 | 22.18082 | -72.20387 | 35080 ft | 495 kts | 114° |
| 2026-05-07 14:36 | 22.14772 | -72.13880 | 35080 ft | 495 kts | 114° |
| 2026-05-07 14:37 | 22.11457 | -72.07371 | 35080 ft | 495 kts | 114° |
| 2026-05-07 14:37 | 22.06483 | -71.97618 | 35079 ft | 495 kts | 115° |
| 2026-05-07 14:38 | 22.03162 | -71.91117 | 35079 ft | 495 kts | 115° |
| 2026-05-07 14:38 | 21.99840 | -71.84622 | 35077 ft | 495 kts | 115° |
| 2026-05-07 14:39 | 21.96513 | -71.78125 | 35075 ft | 495 kts | 115° |
| 2026-05-07 14:39 | 21.93186 | -71.71636 | 35074 ft | 495 kts | 115° |
| 2026-05-07 14:40 | 21.89877 | -71.65191 | 35072 ft | 495 kts | 114° |
| 2026-05-07 14:40 | 21.86544 | -71.58706 | 35069 ft | 495 kts | 115° |
| 2026-05-07 14:41 | 21.83208 | -71.52224 | 35066 ft | 495 kts | 114° |
| 2026-05-07 14:41 | 21.79853 | -71.45713 | 35063 ft | 494 kts | 114° |
| 2026-05-07 14:42 | 21.76538 | -71.39286 | 35060 ft | 494 kts | 114° |
| 2026-05-07 14:42 | 21.73201 | -71.32819 | 35058 ft | 494 kts | 114° |
| 2026-05-07 14:43 | 21.69873 | -71.26352 | 35057 ft | 494 kts | 114° |
| 2026-05-07 14:43 | 21.66528 | -71.19899 | 35055 ft | 494 kts | 114° |
| 2026-05-07 14:44 | 21.63179 | -71.13451 | 35054 ft | 494 kts | 114° |
| 2026-05-07 14:44 | 21.59825 | -71.06998 | 35054 ft | 494 kts | 114° |
| 2026-05-07 14:45 | 21.56357 | -71.00618 | 35054 ft | 497 kts | 118° |
| 2026-05-07 14:45 | 21.52424 | -70.94487 | 35054 ft | 499 kts | 120° |
| 2026-05-07 14:46 | 21.48460 | -70.88383 | 35054 ft | 498 kts | 120° |
| 2026-05-07 14:46 | 21.44525 | -70.82263 | 35055 ft | 498 kts | 120° |
| 2026-05-07 14:47 | 21.40599 | -70.76140 | 35055 ft | 498 kts | 120° |
| 2026-05-07 14:47 | 21.36686 | -70.70006 | 35056 ft | 498 kts | 119° |
| 2026-05-07 14:48 | 21.32781 | -70.63871 | 35058 ft | 498 kts | 119° |
| 2026-05-07 14:48 | 21.28867 | -70.57744 | 35060 ft | 498 kts | 119° |
| 2026-05-07 14:49 | 21.24952 | -70.51629 | 35059 ft | 498 kts | 119° |
| 2026-05-07 14:49 | 21.21027 | -70.45507 | 35060 ft | 498 kts | 119° |
| 2026-05-07 14:50 | 21.17104 | -70.39395 | 35061 ft | 498 kts | 119° |
| 2026-05-07 14:50 | 21.13207 | -70.33331 | 35063 ft | 498 kts | 119° |
| 2026-05-07 14:51 | 21.09280 | -70.27227 | 35064 ft | 498 kts | 119° |
| 2026-05-07 14:51 | 21.05351 | -70.21126 | 35065 ft | 498 kts | 119° |
| 2026-05-07 14:52 | 21.01417 | -70.15025 | 35067 ft | 498 kts | 119° |
| 2026-05-07 14:52 | 20.97486 | -70.08934 | 35068 ft | 498 kts | 119° |
| 2026-05-07 14:53 | 20.93548 | -70.02839 | 35070 ft | 498 kts | 119° |
| 2026-05-07 14:53 | 20.89612 | -69.96755 | 35070 ft | 498 kts | 119° |
| 2026-05-07 14:54 | 20.86338 | -69.91698 | 35072 ft | 497 kts | 119° |
| 2026-05-07 14:54 | 20.82401 | -69.85622 | 35072 ft | 497 kts | 119° |
| 2026-05-07 14:55 | 20.78458 | -69.79546 | 35073 ft | 497 kts | 119° |
| 2026-05-07 14:55 | 20.74520 | -69.73482 | 35074 ft | 497 kts | 119° |
| 2026-05-07 14:56 | 20.70578 | -69.67419 | 35074 ft | 497 kts | 119° |
| 2026-05-07 14:56 | 20.66635 | -69.61361 | 35075 ft | 496 kts | 119° |
| 2026-05-07 14:57 | 20.62696 | -69.55314 | 35076 ft | 496 kts | 119° |
| 2026-05-07 14:57 | 20.58755 | -69.49272 | 35076 ft | 496 kts | 119° |
| 2026-05-07 14:58 | 20.54810 | -69.43230 | 35077 ft | 496 kts | 119° |
| 2026-05-07 14:58 | 20.50861 | -69.37188 | 35081 ft | 497 kts | 119° |
| 2026-05-07 14:59 | 20.46910 | -69.31149 | 35082 ft | 496 kts | 119° |
| 2026-05-07 14:59 | 20.42957 | -69.25114 | 35083 ft | 496 kts | 119° |
| 2026-05-07 15:00 | 20.39001 | -69.19079 | 35083 ft | 496 kts | 119° |
| 2026-05-07 15:00 | 20.35044 | -69.13050 | 35084 ft | 496 kts | 119° |
| 2026-05-07 15:01 | 20.31086 | -69.07025 | 35085 ft | 496 kts | 119° |
| 2026-05-07 15:01 | 20.27130 | -69.01008 | 35085 ft | 496 kts | 119° |
| 2026-05-07 15:02 | 20.23183 | -68.94987 | 35086 ft | 496 kts | 119° |
| 2026-05-07 15:02 | 20.19222 | -68.88979 | 35087 ft | 496 kts | 119° |
| 2026-05-07 15:03 | 20.15250 | -68.82966 | 35087 ft | 496 kts | 120° |
| 2026-05-07 15:03 | 20.11312 | -68.77010 | 35088 ft | 496 kts | 120° |
| 2026-05-07 15:04 | 20.07322 | -68.70966 | 35088 ft | 495 kts | 119° |
| 2026-05-07 15:04 | 20.03569 | -68.64902 | 35089 ft | 494 kts | 117° |
| 2026-05-07 15:05 | 19.99807 | -68.58787 | 35090 ft | 494 kts | 117° |
| 2026-05-07 15:05 | 19.96035 | -68.52690 | 35091 ft | 493 kts | 117° |
| 2026-05-07 15:06 | 19.92260 | -68.46601 | 35091 ft | 493 kts | 117° |
| 2026-05-07 15:06 | 19.88485 | -68.40514 | 35092 ft | 493 kts | 117° |
| 2026-05-07 15:07 | 19.84725 | -68.34425 | 35093 ft | 494 kts | 118° |
| 2026-05-07 15:07 | 19.80947 | -68.28334 | 35104 ft | 494 kts | 118° |
| 2026-05-07 15:08 | 19.77166 | -68.22250 | 35112 ft | 494 kts | 118° |
| 2026-05-07 15:08 | 19.73380 | -68.16167 | 35113 ft | 494 kts | 118° |
| 2026-05-07 15:09 | 19.69594 | -68.10091 | 35114 ft | 493 kts | 117° |
| 2026-05-07 15:09 | 19.66087 | -68.04454 | 35114 ft | 488 kts | 117° |
| 2026-05-07 15:10 | 19.62348 | -67.98451 | 35115 ft | 488 kts | 117° |
| 2026-05-07 15:10 | 19.58622 | -67.92495 | 35116 ft | 488 kts | 117° |
| 2026-05-07 15:11 | 19.54865 | -67.86499 | 35116 ft | 488 kts | 117° |
| 2026-05-07 15:11 | 19.51107 | -67.80504 | 35117 ft | 489 kts | 118° |
| 2026-05-07 15:12 | 19.47341 | -67.74505 | 35118 ft | 489 kts | 118° |
| 2026-05-07 15:12 | 19.43578 | -67.68510 | 35118 ft | 488 kts | 118° |
| 2026-05-07 15:13 | 19.39807 | -67.62525 | 35119 ft | 489 kts | 118° |
| 2026-05-07 15:13 | 19.36032 | -67.56548 | 35120 ft | 488 kts | 118° |
| 2026-05-07 15:14 | 19.32263 | -67.50584 | 35120 ft | 487 kts | 118° |
| 2026-05-07 15:14 | 19.28490 | -67.44619 | 35121 ft | 488 kts | 118° |
| 2026-05-07 15:15 | 19.24711 | -67.38644 | 35121 ft | 488 kts | 118° |
| 2026-05-07 15:15 | 19.20932 | -67.32678 | 35122 ft | 488 kts | 118° |
| 2026-05-07 15:16 | 19.17155 | -67.26718 | 35122 ft | 488 kts | 118° |
| 2026-05-07 15:16 | 19.13374 | -67.20758 | 35123 ft | 488 kts | 118° |
| 2026-05-07 15:17 | 19.09596 | -67.14808 | 35124 ft | 488 kts | 118° |
| 2026-05-07 15:17 | 19.05850 | -67.08876 | 35123 ft | 488 kts | 118° |
| 2026-05-07 15:18 | 19.02075 | -67.02919 | 35124 ft | 488 kts | 118° |
| 2026-05-07 15:18 | 18.98296 | -66.96971 | 35124 ft | 487 kts | 119° |
| 2026-05-07 15:19 | 18.94518 | -66.91031 | 35124 ft | 487 kts | 119° |
| 2026-05-07 15:19 | 18.90748 | -66.85087 | 35124 ft | 487 kts | 119° |
| 2026-05-07 15:20 | 18.86958 | -66.79143 | 35123 ft | 488 kts | 119° |
| 2026-05-07 15:20 | 18.83166 | -66.73207 | 35123 ft | 487 kts | 119° |
| 2026-05-07 15:21 | 18.79375 | -66.67279 | 35122 ft | 487 kts | 119° |
| 2026-05-07 15:21 | 18.76486 | -66.60944 | 35120 ft | 475 kts | 101° |
| 2026-05-07 15:22 | 18.75407 | -66.54163 | 35119 ft | 466 kts | 90° |
| 2026-05-07 15:22 | 18.74971 | -66.47350 | 35117 ft | 465 kts | 89° |
| 2026-05-07 15:23 | 18.74536 | -66.40533 | 35113 ft | 467 kts | 89° |
| 2026-05-07 15:23 | 18.74079 | -66.33701 | 35108 ft | 467 kts | 89° |
| 2026-05-07 15:24 | 18.73614 | -66.26876 | 35107 ft | 467 kts | 89° |
| 2026-05-07 15:24 | 18.73167 | -66.20042 | 35107 ft | 467 kts | 89° |
| 2026-05-07 15:25 | 18.72708 | -66.13214 | 35108 ft | 467 kts | 89° |
| 2026-05-07 15:25 | 18.72241 | -66.06384 | 35112 ft | 467 kts | 89° |
| 2026-05-07 15:26 | 18.71770 | -65.99553 | 35115 ft | 467 kts | 89° |
| 2026-05-07 15:26 | 18.71294 | -65.92705 | 35123 ft | 469 kts | 90° |
| 2026-05-07 15:27 | 18.70815 | -65.85844 | 35125 ft | 469 kts | 90° |
| 2026-05-07 15:27 | 18.70333 | -65.78993 | 35126 ft | 469 kts | 90° |
| 2026-05-07 15:28 | 18.69848 | -65.72126 | 35128 ft | 469 kts | 90° |
| 2026-05-07 15:28 | 18.69376 | -65.65266 | 35129 ft | 469 kts | 90° |
| 2026-05-07 15:29 | 18.68889 | -65.58449 | 35133 ft | 469 kts | 90° |
| 2026-05-07 15:29 | 18.68392 | -65.51592 | 35133 ft | 469 kts | 90° |
| 2026-05-07 15:30 | 18.67891 | -65.44718 | 35132 ft | 470 kts | 90° |
| 2026-05-07 15:30 | 18.67391 | -65.37848 | 35130 ft | 470 kts | 90° |
| 2026-05-07 15:31 | 18.66519 | -65.30994 | 35129 ft | 473 kts | 96° |
| 2026-05-07 15:31 | 18.65324 | -65.24160 | 35127 ft | 474 kts | 96° |
| 2026-05-07 15:32 | 18.64162 | -65.17321 | 35101 ft | 474 kts | 96° |
| 2026-05-07 15:32 | 18.63588 | -65.13888 | 34690 ft | 476 kts | 96° |
| 2026-05-07 15:32 | 18.63017 | -65.10458 | 33968 ft | 475 kts | 96° |
| 2026-05-07 15:33 | 18.62447 | -65.07023 | 33197 ft | 476 kts | 96° |
| 2026-05-07 15:33 | 18.61876 | -65.03580 | 32418 ft | 477 kts | 96° |
| 2026-05-07 15:33 | 18.61307 | -65.00138 | 31764 ft | 475 kts | 96° |
| 2026-05-07 15:33 | 18.60757 | -64.96724 | 31198 ft | 471 kts | 96° |
| 2026-05-07 15:34 | 18.60206 | -64.93336 | 30638 ft | 467 kts | 96° |
| 2026-05-07 15:34 | 18.59657 | -64.89981 | 30088 ft | 463 kts | 96° |
| 2026-05-07 15:34 | 18.59110 | -64.86651 | 29551 ft | 459 kts | 96° |
| 2026-05-07 15:34 | 18.58565 | -64.83346 | 29024 ft | 455 kts | 96° |
| 2026-05-07 15:35 | 18.58024 | -64.80073 | 28499 ft | 452 kts | 96° |
| 2026-05-07 15:35 | 18.57487 | -64.76828 | 27977 ft | 448 kts | 96° |
| 2026-05-07 15:35 | 18.56953 | -64.73602 | 27456 ft | 445 kts | 96° |
| 2026-05-07 15:35 | 18.56422 | -64.70401 | 26937 ft | 442 kts | 97° |
| 2026-05-07 15:36 | 18.55894 | -64.67227 | 26420 ft | 439 kts | 97° |
| 2026-05-07 15:36 | 18.55370 | -64.64074 | 25903 ft | 435 kts | 97° |
| 2026-05-07 15:36 | 18.54848 | -64.60938 | 25388 ft | 432 kts | 97° |
| 2026-05-07 15:36 | 18.54329 | -64.57831 | 24874 ft | 430 kts | 97° |
| 2026-05-07 15:37 | 18.53814 | -64.54739 | 24363 ft | 427 kts | 97° |
| 2026-05-07 15:37 | 18.53300 | -64.51667 | 23849 ft | 424 kts | 97° |
| 2026-05-07 15:37 | 18.52790 | -64.48615 | 23338 ft | 422 kts | 97° |
| 2026-05-07 15:37 | 18.52282 | -64.45583 | 22828 ft | 419 kts | 98° |
| 2026-05-07 15:38 | 18.51784 | -64.42610 | 22324 ft | 417 kts | 98° |
| 2026-05-07 15:38 | 18.51282 | -64.39614 | 21816 ft | 414 kts | 98° |
| 2026-05-07 15:38 | 18.50782 | -64.36635 | 21307 ft | 411 kts | 98° |
| 2026-05-07 15:38 | 18.50285 | -64.33678 | 20801 ft | 409 kts | 98° |
| 2026-05-07 15:39 | 18.49790 | -64.30740 | 20295 ft | 406 kts | 98° |
| 2026-05-07 15:39 | 18.49298 | -64.27815 | 19791 ft | 404 kts | 98° |
| 2026-05-07 15:39 | 18.48809 | -64.24913 | 19289 ft | 401 kts | 98° |
| 2026-05-07 15:39 | 18.48322 | -64.22026 | 18788 ft | 399 kts | 98° |
| 2026-05-07 15:40 | 18.47838 | -64.19161 | 18291 ft | 396 kts | 98° |
| 2026-05-07 15:40 | 18.47356 | -64.16308 | 17795 ft | 394 kts | 98° |
| 2026-05-07 15:40 | 18.46877 | -64.13477 | 17302 ft | 391 kts | 98° |
| 2026-05-07 15:40 | 18.46400 | -64.10663 | 16813 ft | 389 kts | 98° |
| 2026-05-07 15:41 | 18.45927 | -64.07870 | 16326 ft | 386 kts | 98° |
| 2026-05-07 15:41 | 18.45456 | -64.05097 | 15841 ft | 384 kts | 98° |
| 2026-05-07 15:41 | 18.44988 | -64.02340 | 15358 ft | 381 kts | 98° |
| 2026-05-07 15:41 | 18.44526 | -63.99599 | 14878 ft | 379 kts | 98° |
| 2026-05-07 15:42 | 18.44072 | -63.96876 | 14398 ft | 376 kts | 98° |
| 2026-05-07 15:42 | 18.43616 | -63.94178 | 13924 ft | 373 kts | 99° |
| 2026-05-07 15:42 | 18.43307 | -63.92364 | 13603 ft | 372 kts | 99° |
| 2026-05-07 15:42 | 18.42851 | -63.89691 | 13132 ft | 369 kts | 99° |
| 2026-05-07 15:43 | 18.42397 | -63.87043 | 12660 ft | 367 kts | 99° |
| 2026-05-07 15:43 | 18.41951 | -63.84445 | 12192 ft | 364 kts | 99° |
| 2026-05-07 15:43 | 18.41502 | -63.81831 | 11720 ft | 362 kts | 99° |
| 2026-05-07 15:43 | 18.41057 | -63.79244 | 11487 ft | 352 kts | 99° |
| 2026-05-07 15:44 | 18.40631 | -63.76764 | 11456 ft | 338 kts | 99° |
| 2026-05-07 15:44 | 18.40220 | -63.74377 | 11382 ft | 325 kts | 99° |
| 2026-05-07 15:44 | 18.39825 | -63.72079 | 11304 ft | 314 kts | 99° |
| 2026-05-07 15:44 | 18.39442 | -63.69856 | 11225 ft | 303 kts | 99° |
| 2026-05-07 15:45 | 18.39030 | -63.67717 | 11140 ft | 294 kts | 105° |
| 2026-05-07 15:45 | 18.38082 | -63.65861 | 11034 ft | 286 kts | 127° |
| 2026-05-07 15:45 | 18.36727 | -63.64323 | 10646 ft | 289 kts | 134° |
| 2026-05-07 15:45 | 18.35261 | -63.62876 | 10298 ft | 289 kts | 137° |
| 2026-05-07 15:46 | 18.32281 | -63.60030 | 9628 ft | 289 kts | 136° |
| 2026-05-07 15:46 | 18.30807 | -63.58597 | 9297 ft | 288 kts | 136° |
| 2026-05-07 15:46 | 18.29341 | -63.57161 | 8968 ft | 287 kts | 136° |
| 2026-05-07 15:47 | 18.27885 | -63.55728 | 8643 ft | 286 kts | 136° |
| 2026-05-07 15:47 | 18.26434 | -63.54296 | 8318 ft | 285 kts | 136° |
| 2026-05-07 15:47 | 18.24992 | -63.52867 | 7995 ft | 284 kts | 135° |
| 2026-05-07 15:47 | 18.23563 | -63.51440 | 7673 ft | 283 kts | 135° |
| 2026-05-07 15:48 | 18.22139 | -63.50021 | 7352 ft | 281 kts | 135° |
| 2026-05-07 15:48 | 18.20729 | -63.48618 | 7028 ft | 274 kts | 135° |
| 2026-05-07 15:48 | 18.19377 | -63.47275 | 6653 ft | 262 kts | 135° |
| 2026-05-07 15:48 | 18.18084 | -63.45992 | 6331 ft | 249 kts | 135° |
| 2026-05-07 15:49 | 18.16853 | -63.44771 | 6044 ft | 237 kts | 135° |
| 2026-05-07 15:49 | 18.15678 | -63.43606 | 5776 ft | 229 kts | 135° |
| 2026-05-07 15:49 | 18.14550 | -63.42488 | 5544 ft | 217 kts | 135° |
| 2026-05-07 15:49 | 18.13482 | -63.41430 | 5289 ft | 206 kts | 135° |
| 2026-05-07 15:50 | 18.12449 | -63.40406 | 5059 ft | 203 kts | 135° |
| 2026-05-07 15:50 | 18.11432 | -63.39399 | 4841 ft | 205 kts | 135° |
| 2026-05-07 15:50 | 18.10383 | -63.38359 | 4604 ft | 204 kts | 135° |
| 2026-05-07 15:50 | 18.09370 | -63.37356 | 4373 ft | 201 kts | 135° |
| 2026-05-07 15:51 | 18.08357 | -63.36353 | 4145 ft | 199 kts | 135° |
| 2026-05-07 15:51 | 18.07340 | -63.35345 | 3917 ft | 198 kts | 135° |
| 2026-05-07 15:51 | 18.06354 | -63.34369 | 3699 ft | 195 kts | 135° |
| 2026-05-07 15:51 | 18.05392 | -63.33417 | 3497 ft | 186 kts | 134° |
| 2026-05-07 15:52 | 18.04467 | -63.32502 | 3273 ft | 179 kts | 134° |
| 2026-05-07 15:52 | 18.03580 | -63.31624 | 3067 ft | 173 kts | 134° |
| 2026-05-07 15:52 | 18.02710 | -63.30763 | 2873 ft | 171 kts | 134° |
| 2026-05-07 15:52 | 18.01883 | -63.29877 | 2670 ft | 170 kts | 125° |
| 2026-05-07 15:53 | 18.01579 | -63.28712 | 2553 ft | 165 kts | 93° |
| 2026-05-07 15:53 | 18.01678 | -63.27517 | 2603 ft | 165 kts | 82° |
| 2026-05-07 15:53 | 18.01873 | -63.26321 | 2610 ft | 167 kts | 81° |
| 2026-05-07 15:53 | 18.02058 | -63.25102 | 2577 ft | 170 kts | 82° |
| 2026-05-07 15:54 | 18.02236 | -63.23881 | 2391 ft | 165 kts | 82° |
| 2026-05-07 15:54 | 18.02402 | -63.22721 | 2172 ft | 157 kts | 82° |
| 2026-05-07 15:54 | 18.02561 | -63.21609 | 1948 ft | 152 kts | 83° |
| 2026-05-07 15:54 | 18.02716 | -63.20524 | 1736 ft | 149 kts | 82° |
| 2026-05-07 15:55 | 18.02868 | -63.19459 | 1536 ft | 147 kts | 83° |
| 2026-05-07 15:55 | 18.03021 | -63.18393 | 1338 ft | 149 kts | 83° |
| 2026-05-07 15:55 | 18.03175 | -63.17311 | 1137 ft | 150 kts | 83° |
| 2026-05-07 15:55 | 18.03330 | -63.16227 | 933 ft | 150 kts | 83° |
| 2026-05-07 15:56 | 18.03472 | -63.15240 | 745 ft | 149 kts | 83° |
| 2026-05-07 15:56 | 18.03624 | -63.14169 | 540 ft | 148 kts | 83° |
| 2026-05-07 15:56 | 18.03773 | -63.13107 | 296 ft | 144 kts | 83° |
| 2026-05-07 15:56 | 18.03921 | -63.12061 | 54 ft | 146 kts | 83° |
| 2026-05-07 15:57 | 18.04059 | -63.11079 | 9 ft | 110 kts | 81° |
| 2026-05-07 15:57 | 18.04130 | -63.10592 | 8 ft | 27 kts | 96° |
| 2026-05-07 15:57 | 18.04136 | -63.10485 | 8 ft | 9 kts | 342° |
| 2026-05-07 15:57 | 18.04141 | -63.10548 | 8 ft | 11 kts | 260° |
| 2026-05-07 15:58 | 18.04120 | -63.10674 | 8 ft | 22 kts | 260° |
| 2026-05-07 15:58 | 18.04097 | -63.10832 | 8 ft | 21 kts | 261° |
| 2026-05-07 15:58 | 18.04078 | -63.10982 | 8 ft | 20 kts | 259° |
| 2026-05-07 15:58 | 18.04056 | -63.11126 | 8 ft | 19 kts | 261° |
| 2026-05-07 15:59 | 18.04038 | -63.11259 | 8 ft | 13 kts | 281° |
| 2026-05-07 15:59 | 18.04107 | -63.11305 | 8 ft | 9 kts | 348° |
| 2026-05-07 15:59 | 18.04160 | -63.11312 | 8 ft | 7 kts | 353° |
| 2026-05-07 15:59 | 18.04209 | -63.11319 | 8 ft | 7 kts | 351° |
| 2026-05-07 16:00 | 18.04253 | -63.11335 | 8 ft | 7 kts | 323° |
| 2026-05-07 16:00 | 18.04293 | -63.11360 | 8 ft | 7 kts | 347° |
| 2026-05-07 16:00 | 18.04332 | -63.11366 | 8 ft | 0 kts | 352° |
| 2026-05-07 16:00 | 18.04335 | -63.11366 | 8 ft | 0 kts | 351° |